Time;durP1;ratioP1;P1;durP2;ratioP2;P2;SDS_P1;SDS_P2;PMS_P1;PMS_P2;Temp;Humidity;BMP_temperature;BMP_pressure;BME280_temperature;BME280_humidity;BME280_pressure;Samples;Min_cycle;Max_cycle;Signal;HPM_P1;HPM_P2
2023/07/11 00:02:14;;;;;;;5.97;5.38;;;;;;;;;;5092516;28;20048;-85
2023/07/11 00:04:41;;;;;;;8.38;5.57;;;;;;;;;;5093492;28;20631;-85
2023/07/11 00:07:08;;;;;;;6.28;5.75;;;;;;;;;;5092572;28;20230;-85
2023/07/11 00:09:35;;;;;;;5.85;5.35;;;;;;;;;;5092678;28;20073;-85
2023/07/11 00:12:03;;;;;;;6.75;5.50;;;;;;;;;;5093053;28;20500;-85
2023/07/11 00:14:30;;;;;;;7.43;5.28;;;;;;;;;;5093432;28;20101;-85
2023/07/11 00:16:57;;;;;;;6.05;5.45;;;;;;;;;;5091679;28;20131;-85
2023/07/11 00:19:24;;;;;;;6.18;5.47;;;;;;;;;;5092498;28;20071;-85
2023/07/11 00:21:52;;;;;;;6.97;5.57;;;;;;;;;;5092058;28;20044;-85
2023/07/11 00:24:19;;;;;;;9.00;5.97;;;;;;;;;;5093358;28;20083;-85
2023/07/11 00:26:46;;;;;;;6.55;5.95;;;;;;;;;;5091994;28;20075;-85
2023/07/11 00:29:15;;;;;;;7.05;6.20;;;;;;;;;;5091854;28;20048;-85
2023/07/11 00:31:42;;;;;;;8.05;5.60;;;;;;;;;;5091853;28;20052;-85
2023/07/11 00:34:09;;;;;;;8.93;5.63;;;;;;;;;;5092431;28;20072;-85
2023/07/11 00:36:37;;;;;;;6.57;5.97;;;;;;;;;;5093189;28;20102;-85
2023/07/11 00:39:05;;;;;;;8.05;6.15;;;;;;;;;;5093333;28;20052;-85
2023/07/11 00:41:32;;;;;;;6.57;5.43;;;;;;;;;;5091792;28;20504;-85
2023/07/11 00:44:00;;;;;;;7.90;6.10;;;;;;;;;;5092741;28;20051;-85
2023/07/11 00:46:28;;;;;;;12.88;6.45;;;;;;;;;;5092550;28;20502;-84
2023/07/11 00:48:58;;;;;;;6.40;5.80;;;;;;;;;;5092058;28;20055;-85
2023/07/11 00:51:27;;;;;;;8.32;6.72;;;;;;;;;;5093169;28;20101;-85
2023/07/11 00:53:55;;;;;;;6.30;5.70;;;;;;;;;;5091829;28;20240;-85
2023/07/11 00:56:24;;;;;;;8.38;6.57;;;;;;;;;;5090569;28;20075;-84
2023/07/11 00:58:51;;;;;;;6.72;6.13;;;;;;;;;;5092818;28;20056;-85
2023/07/11 01:01:19;;;;;;;6.97;6.38;;;;;;;;;;5091702;28;20093;-85
2023/07/11 01:03:48;;;;;;;6.97;6.28;;;;;;;;;;5091457;28;20063;-85
2023/07/11 01:06:16;;;;;;;8.50;6.43;;;;;;;;;;5092877;28;20139;-84
2023/07/11 01:08:44;;;;;;;6.90;6.20;;;;;;;;;;5091494;28;20071;-85
2023/07/11 01:11:12;;;;;;;7.63;6.82;;;;;;;;;;5091286;28;20048;-85
2023/07/11 01:13:39;;;;;;;7.13;6.13;;;;;;;;;;5091560;28;20523;-85
2023/07/11 01:16:06;;;;;;;7.35;6.60;;;;;;;;;;5092958;28;20052;-85
2023/07/11 01:18:34;;;;;;;11.05;6.90;;;;;;;;;;5092868;28;20141;-85
2023/07/11 01:21:04;;;;;;;9.35;6.50;;;;;;;;;;5091462;28;20549;-85
2023/07/11 01:23:31;;;;;;;8.73;6.55;;;;;;;;;;5091646;28;20047;-85
2023/07/11 01:26:03;;;;;;;7.70;6.78;;;;;;;;;;5091130;28;20093;-85
2023/07/11 01:28:31;;;;;;;7.13;6.53;;;;;;;;;;5091534;28;20044;-85
2023/07/11 01:30:58;;;;;;;8.55;6.53;;;;;;;;;;5091453;28;20135;-85
2023/07/11 01:33:26;;;;;;;8.20;7.10;;;;;;;;;;5091609;28;20127;-85
2023/07/11 01:35:55;;;;;;;8.57;6.70;;;;;;;;;;5091142;28;20514;-85
2023/07/11 01:38:23;;;;;;;8.02;7.22;;;;;;;;;;5091397;28;20389;-85
2023/07/11 01:40:50;;;;;;;8.35;6.80;;;;;;;;;;5092389;28;20048;-85
2023/07/11 01:43:18;;;;;;;8.30;7.28;;;;;;;;;;5090902;28;20087;-85
2023/07/11 01:45:45;;;;;;;9.32;6.70;;;;;;;;;;5092655;28;20044;-85
2023/07/11 01:48:13;;;;;;;7.35;6.63;;;;;;;;;;5091182;28;20387;-85
2023/07/11 01:50:40;;;;;;;8.15;6.70;;;;;;;;;;5091950;28;20074;-85
2023/07/11 01:53:07;;;;;;;9.63;6.70;;;;;;;;;;5091010;28;20058;-84
2023/07/11 01:55:34;;;;;;;8.02;6.82;;;;;;;;;;5091143;28;20125;-85
2023/07/11 01:58:02;;;;;;;7.65;6.82;;;;;;;;;;5093499;28;20109;-85
2023/07/11 02:00:29;;;;;;;8.90;6.40;;;;;;;;;;5095169;28;20047;-85
2023/07/11 02:02:56;;;;;;;9.00;7.45;;;;;;;;;;5095124;28;20044;-85
2023/07/11 02:05:24;;;;;;;10.85;7.13;;;;;;;;;;5094253;28;20055;-84
2023/07/11 02:07:51;;;;;;;7.13;6.50;;;;;;;;;;5094220;28;20044;-85
2023/07/11 02:10:18;;;;;;;8.27;6.63;;;;;;;;;;5095717;28;20052;-85
2023/07/11 02:12:45;;;;;;;10.30;6.95;;;;;;;;;;5095396;28;20071;-85
2023/07/11 02:15:13;;;;;;;10.13;6.45;;;;;;;;;;5095206;28;20052;-85
2023/07/11 02:17:40;;;;;;;7.78;6.38;;;;;;;;;;5095149;28;20076;-85
2023/07/11 02:20:09;;;;;;;9.63;7.05;;;;;;;;;;5095007;28;20047;-85
2023/07/11 02:22:36;;;;;;;9.25;6.97;;;;;;;;;;5094096;28;20450;-85
2023/07/11 02:25:03;;;;;;;7.13;6.53;;;;;;;;;;5095131;28;20051;-85
2023/07/11 02:27:30;;;;;;;7.15;6.53;;;;;;;;;;5095373;28;20083;-85
2023/07/11 02:29:58;;;;;;;7.85;7.15;;;;;;;;;;5094220;28;20093;-85
2023/07/11 02:32:25;;;;;;;8.15;7.40;;;;;;;;;;5094051;28;20056;-85
2023/07/11 02:34:52;;;;;;;9.95;7.70;;;;;;;;;;5095380;28;20411;-85
2023/07/11 02:37:20;;;;;;;11.98;8.00;;;;;;;;;;5094484;28;20082;-84
2023/07/11 02:39:48;;;;;;;7.82;7.10;;;;;;;;;;5094156;28;20048;-85
2023/07/11 02:42:15;;;;;;;8.82;7.13;;;;;;;;;;5094911;28;20075;-85
2023/07/11 02:44:42;;;;;;;10.30;7.35;;;;;;;;;;5093906;28;20066;-85
2023/07/11 02:47:11;;;;;;;8.60;7.80;;;;;;;;;;5094969;28;20084;-85
2023/07/11 02:49:40;;;;;;;10.93;8.18;;;;;;;;;;5095131;28;20044;-85
2023/07/11 02:52:09;;;;;;;8.48;7.68;;;;;;;;;;5094917;28;20184;-85
2023/07/11 02:54:37;;;;;;;10.65;7.65;;;;;;;;;;5094946;28;20048;-85
2023/07/11 02:57:06;;;;;;;10.00;8.07;;;;;;;;;;5094891;28;20075;-84
2023/07/11 02:59:33;;;;;;;10.50;8.10;;;;;;;;;;5094744;28;20052;-85
2023/07/11 03:02:01;;;;;;;9.25;8.27;;;;;;;;;;5094687;28;20101;-85
2023/07/11 03:04:28;;;;;;;9.63;8.30;;;;;;;;;;5093958;28;20048;-85
2023/07/11 03:06:58;;;;;;;8.82;7.93;;;;;;;;;;5093754;28;20088;-85
2023/07/11 03:09:26;;;;;;;8.98;8.07;;;;;;;;;;5094620;28;20052;-85
2023/07/11 03:11:54;;;;;;;9.88;8.07;;;;;;;;;;5094097;28;20098;-85
2023/07/11 03:14:21;;;;;;;11.85;8.20;;;;;;;;;;5094667;28;20052;-85
2023/07/11 03:16:52;;;;;;;13.63;8.60;;;;;;;;;;5093555;28;20044;-84
2023/07/11 03:19:20;;;;;;;13.88;8.10;;;;;;;;;;5094627;28;20048;-84
2023/07/11 03:21:47;;;;;;;10.07;8.52;;;;;;;;;;5093362;28;20044;-84
2023/07/11 03:24:15;;;;;;;10.60;8.85;;;;;;;;;;5092942;28;20439;-85
2023/07/11 03:26:45;;;;;;;11.60;8.93;;;;;;;;;;5092911;28;20048;-85
2023/07/11 03:29:13;;;;;;;9.13;7.72;;;;;;;;;;5093044;28;20039;-85
2023/07/11 03:31:41;;;;;;;8.80;8.00;;;;;;;;;;5093003;28;20048;-85
2023/07/11 03:34:08;;;;;;;11.57;8.25;;;;;;;;;;5093054;28;20087;-84
2023/07/11 03:36:35;;;;;;;10.85;8.32;;;;;;;;;;5092894;28;20044;-84
2023/07/11 03:39:03;;;;;;;9.45;8.55;;;;;;;;;;5093807;28;20083;-85
2023/07/11 03:41:31;;;;;;;11.98;9.02;;;;;;;;;;5092468;28;20072;-84
2023/07/11 03:43:58;;;;;;;8.23;7.47;;;;;;;;;;5093881;28;20079;-85
2023/07/11 03:46:25;;;;;;;9.65;8.70;;;;;;;;;;5093689;28;20040;-84
2023/07/11 03:48:54;;;;;;;10.15;9.15;;;;;;;;;;5092551;28;20450;-84
2023/07/11 03:51:21;;;;;;;8.98;8.07;;;;;;;;;;5092576;28;20048;-85
2023/07/11 03:53:49;;;;;;;10.00;8.90;;;;;;;;;;5092433;28;20052;-84
2023/07/11 03:56:16;;;;;;;11.02;9.27;;;;;;;;;;5092524;28;20044;-85
2023/07/11 03:58:43;;;;;;;10.70;7.90;;;;;;;;;;5092307;28;20051;-85
2023/07/11 04:01:10;;;;;;;10.23;9.13;;;;;;;;;;5093725;28;20052;-84
2023/07/11 04:03:38;;;;;;;11.27;7.85;;;;;;;;;;5093055;28;20083;-85
2023/07/11 04:06:07;;;;;;;9.25;8.35;;;;;;;;;;5091696;28;20048;-84
2023/07/11 04:08:39;;;;;;;11.35;8.88;;;;;;;;;;5093527;28;20109;-85
2023/07/11 04:11:06;;;;;;;10.02;8.02;;;;;;;;;;5092018;28;20044;-85
2023/07/11 04:13:33;;;;;;;9.15;8.25;;;;;;;;;;5092495;28;20044;-85
2023/07/11 04:16:01;;;;;;;10.10;8.40;;;;;;;;;;5091918;28;20054;-84
2023/07/11 04:18:28;;;;;;;9.05;8.13;;;;;;;;;;5092900;28;20051;-84
2023/07/11 04:20:55;;;;;;;10.27;7.78;;;;;;;;;;5092158;28;20511;-85
2023/07/11 04:23:22;;;;;;;11.32;7.78;;;;;;;;;;5092054;28;20044;-85
2023/07/11 04:25:49;;;;;;;13.10;8.13;;;;;;;;;;5093092;28;20088;-85
2023/07/11 04:28:17;;;;;;;9.15;8.25;;;;;;;;;;5092046;28;20127;-85
2023/07/11 04:30:44;;;;;;;8.25;7.45;;;;;;;;;;5091489;28;20557;-84
2023/07/11 04:33:11;;;;;;;8.23;7.00;;;;;;;;;;5091543;28;20569;-84
2023/07/11 04:35:40;;;;;;;7.82;7.13;;;;;;;;;;5091807;28;20055;-85
2023/07/11 04:38:07;;;;;;;7.22;6.53;;;;;;;;;;5091574;28;20083;-84
2023/07/11 04:40:34;;;;;;;7.97;6.53;;;;;;;;;;5091540;28;20093;-84
2023/07/11 04:43:01;;;;;;;9.10;6.72;;;;;;;;;;5091650;28;20052;-85
2023/07/11 04:45:29;;;;;;;9.50;6.72;;;;;;;;;;5092841;28;20131;-84
2023/07/11 04:47:56;;;;;;;8.63;6.93;;;;;;;;;;5091347;28;20095;-84
2023/07/11 04:50:23;;;;;;;9.50;6.60;;;;;;;;;;5091844;28;20040;-84
2023/07/11 04:52:50;;;;;;;9.68;6.35;;;;;;;;;;5092471;28;20082;-84
2023/07/11 04:55:18;;;;;;;8.05;6.28;;;;;;;;;;5091614;28;20076;-85
2023/07/11 04:57:45;;;;;;;9.38;6.93;;;;;;;;;;5091259;28;20101;-84
2023/07/11 05:00:12;;;;;;;12.65;6.72;;;;;;;;;;5091326;28;20117;-85
2023/07/11 05:02:40;;;;;;;7.65;6.45;;;;;;;;;;5091108;28;20075;-85
2023/07/11 05:05:07;;;;;;;8.35;6.50;;;;;;;;;;5091558;28;20055;-85
2023/07/11 05:07:34;;;;;;;7.20;6.45;;;;;;;;;;5091139;28;20084;-84
2023/07/11 05:10:01;;;;;;;6.60;6.00;;;;;;;;;;5091206;28;20497;-85
2023/07/11 05:12:29;;;;;;;11.70;6.90;;;;;;;;;;5092333;28;20502;-84
2023/07/11 05:14:56;;;;;;;8.77;6.03;;;;;;;;;;5090757;28;20052;-85
2023/07/11 05:17:23;;;;;;;8.27;6.63;;;;;;;;;;5091192;28;20476;-85
2023/07/11 05:19:50;;;;;;;7.80;6.20;;;;;;;;;;5092133;28;20055;-84
2023/07/11 05:22:18;;;;;;;24.83;6.50;;;;;;;;;;5092339;28;20098;-85
2023/07/11 05:24:45;;;;;;;8.20;5.80;;;;;;;;;;5091214;28;20044;-84
2023/07/11 05:27:12;;;;;;;6.55;5.22;;;;;;;;;;5090915;28;20076;-82
2023/07/11 05:29:40;;;;;;;8.07;6.07;;;;;;;;;;5091055;28;20056;-83
2023/07/11 05:32:07;;;;;;;11.00;5.20;;;;;;;;;;5090902;28;20059;-83
2023/07/11 05:34:34;;;;;;;14.25;6.25;;;;;;;;;;5095115;28;20109;-83
2023/07/11 05:37:03;;;;;;;8.15;5.13;;;;;;;;;;5094970;28;20476;-83
2023/07/11 05:39:31;;;;;;;9.30;5.47;;;;;;;;;;5093959;28;20044;-83
2023/07/11 05:41:58;;;;;;;6.72;5.07;;;;;;;;;;5094421;28;20059;-82
2023/07/11 05:44:25;;;;;;;11.60;5.75;;;;;;;;;;5095038;28;20048;-83
2023/07/11 05:46:53;;;;;;;9.27;5.00;;;;;;;;;;5094604;28;20492;-83
2023/07/11 05:49:20;;;;;;;9.75;5.90;;;;;;;;;;5095111;28;20089;-83
2023/07/11 05:51:47;;;;;;;8.05;5.50;;;;;;;;;;5095655;28;20492;-83
2023/07/11 05:54:15;;;;;;;12.38;5.00;;;;;;;;;;5094346;28;20044;-83
2023/07/11 05:56:42;;;;;;;15.15;5.30;;;;;;;;;;5094408;28;20051;-83
2023/07/11 05:59:09;;;;;;;16.60;5.47;;;;;;;;;;5095515;28;20486;-83
2023/07/11 06:01:36;;;;;;;12.52;5.63;;;;;;;;;;5095827;28;20044;-82
2023/07/11 06:04:06;;;;;;;15.35;5.47;;;;;;;;;;5095869;28;20055;-83
2023/07/11 06:06:35;;;;;;;21.52;6.78;;;;;;;;;;5094548;28;20055;-82
2023/07/11 06:09:04;;;;;;;12.70;4.90;;;;;;;;;;5093795;28;20052;-83
2023/07/11 06:11:32;;;;;;;11.63;5.30;;;;;;;;;;5094177;28;20044;-83
2023/07/11 06:13:59;;;;;;;27.90;6.15;;;;;;;;;;5095370;28;20052;-83
2023/07/11 06:16:26;;;;;;;8.02;4.97;;;;;;;;;;5094956;28;20454;-83
2023/07/11 06:18:54;;;;;;;8.02;5.05;;;;;;;;;;5095174;28;20131;-83
2023/07/11 06:21:21;;;;;;;16.92;5.30;;;;;;;;;;5094962;28;20044;-83
2023/07/11 06:23:48;;;;;;;27.42;6.70;;;;;;;;;;5093847;28;20087;-83
2023/07/11 06:26:15;;;;;;;32.53;6.30;;;;;;;;;;5094957;28;20098;-83
2023/07/11 06:28:43;;;;;;;22.77;6.50;;;;;;;;;;5093951;28;20048;-83
2023/07/11 06:31:12;;;;;;;13.77;5.53;;;;;;;;;;5095073;28;20075;-83
2023/07/11 06:33:40;;;;;;;21.23;6.38;;;;;;;;;;5094649;28;20492;-83
2023/07/11 06:36:08;;;;;;;25.58;5.95;;;;;;;;;;5093641;28;20691;-83
2023/07/11 06:38:35;;;;;;;18.98;5.88;;;;;;;;;;5094758;28;20470;-85
2023/07/11 06:41:02;;;;;;;6.38;4.55;;;;;;;;;;5093478;28;20093;-84
2023/07/11 06:43:30;;;;;;;17.25;5.43;;;;;;;;;;5093108;28;20131;-84
2023/07/11 06:45:58;;;;;;;9.52;5.00;;;;;;;;;;5094154;28;20048;-84
2023/07/11 06:48:27;;;;;;;6.15;4.30;;;;;;;;;;5093702;28;20105;-85
2023/07/11 06:50:59;;;;;;;6.97;4.15;;;;;;;;;;5093565;28;20050;-84
2023/07/11 06:53:28;;;;;;;14.77;4.85;;;;;;;;;;5094096;28;20079;-84
2023/07/11 06:55:55;;;;;;;11.45;4.57;;;;;;;;;;5093460;28;20047;-84
2023/07/11 06:58:22;;;;;;;6.25;4.40;;;;;;;;;;5094056;28;20260;-85
2023/07/11 07:01:01;;;;;;;5.75;4.80;;;;;;;;;;5094762;28;20083;-84
2023/07/11 07:03:29;;;;;;;6.60;4.10;;;;;;;;;;5093531;28;20040;-84
2023/07/11 07:06:00;;;;;;;5.13;4.10;;;;;;;;;;5093859;28;20080;-84
2023/07/11 07:08:28;;;;;;;10.30;4.60;;;;;;;;;;5093881;28;20056;-85
2023/07/11 07:10:55;;;;;;;6.07;4.40;;;;;;;;;;5093350;28;20048;-85
2023/07/11 07:13:23;;;;;;;6.45;4.72;;;;;;;;;;5093870;28;20106;-87
2023/07/11 07:15:51;;;;;;;5.07;4.00;;;;;;;;;;5093141;28;20044;-84
2023/07/11 07:18:18;;;;;;;7.75;5.00;;;;;;;;;;5094747;28;20086;-83
2023/07/11 07:20:46;;;;;;;6.47;4.53;;;;;;;;;;5094699;28;20044;-84
2023/07/11 07:23:25;;;;;;;7.22;4.00;;;;;;;;;;5094375;28;20055;-85
2023/07/11 07:25:54;;;;;;;4.75;4.20;;;;;;;;;;5092879;28;20040;-84
2023/07/11 07:28:21;;;;;;;7.05;4.35;;;;;;;;;;5092996;28;20048;-85
2023/07/11 07:30:51;;;;;;;6.35;4.40;;;;;;;;;;5093125;28;20135;-85
2023/07/11 07:33:19;;;;;;;3.75;3.53;;;;;;;;;;5094141;28;20055;-84
2023/07/11 07:35:46;;;;;;;7.05;4.25;;;;;;;;;;5093207;28;20044;-85
2023/07/11 07:38:13;;;;;;;6.47;4.07;;;;;;;;;;5094318;28;20079;-85
2023/07/11 07:40:41;;;;;;;6.25;3.97;;;;;;;;;;5093353;28;20087;-88
2023/07/11 07:43:08;;;;;;;3.95;3.67;;;;;;;;;;5094207;28;20056;-86
2023/07/11 07:45:36;;;;;;;6.47;4.30;;;;;;;;;;5094303;28;20079;-85
2023/07/11 07:48:03;;;;;;;4.05;3.63;;;;;;;;;;5092729;28;20515;-85
2023/07/11 07:50:31;;;;;;;3.92;3.63;;;;;;;;;;5093164;28;20047;-85
2023/07/11 07:52:58;;;;;;;5.28;3.70;;;;;;;;;;5092755;28;20122;-84
2023/07/11 07:55:25;;;;;;;6.72;4.65;;;;;;;;;;5092846;28;20488;-84
2023/07/11 07:57:53;;;;;;;6.65;4.38;;;;;;;;;;5092647;28;20109;-85
2023/07/11 08:00:20;;;;;;;5.30;4.28;;;;;;;;;;5092710;28;20097;-85
2023/07/11 08:02:47;;;;;;;6.13;4.15;;;;;;;;;;5092818;28;20087;-85
2023/07/11 08:05:17;;;;;;;4.70;4.05;;;;;;;;;;5092528;28;20044;-84
2023/07/11 08:07:45;;;;;;;6.20;4.50;;;;;;;;;;5093524;28;20079;-84
2023/07/11 08:10:12;;;;;;;6.72;4.68;;;;;;;;;;5092014;28;20040;-84
2023/07/11 08:12:39;;;;;;;5.15;4.70;;;;;;;;;;5093500;28;20076;-85
2023/07/11 08:15:07;;;;;;;4.72;4.20;;;;;;;;;;5092597;28;20072;-84
2023/07/11 08:17:34;;;;;;;4.85;4.07;;;;;;;;;;5093688;28;20048;-85
2023/07/11 08:20:02;;;;;;;9.48;6.18;;;;;;;;;;5092437;28;20098;-82
2023/07/11 08:22:29;;;;;;;4.38;4.07;;;;;;;;;;5092335;28;20560;-86
2023/07/11 08:24:56;;;;;;;14.27;8.40;;;;;;;;;;5092144;28;20048;-83
2023/07/11 08:27:23;;;;;;;4.95;4.55;;;;;;;;;;5092301;28;20044;-84
2023/07/11 08:29:51;;;;;;;6.25;4.90;;;;;;;;;;5093308;28;20088;-84
2023/07/11 08:32:19;;;;;;;6.97;5.13;;;;;;;;;;5092157;28;20071;-83
2023/07/11 08:34:46;;;;;;;6.93;4.10;;;;;;;;;;5093072;28;20438;-86
2023/07/11 08:37:13;;;;;;;4.43;3.70;;;;;;;;;;5092578;28;20105;-85
2023/07/11 08:39:41;;;;;;;5.55;4.88;;;;;;;;;;5092545;28;20052;-86
2023/07/11 08:42:20;;;;;;;4.68;4.20;;;;;;;;;;5091714;28;20117;-84
2023/07/11 08:44:59;;;;;;;5.07;4.68;;;;;;;;;;5092008;28;20123;-84
2023/07/11 08:47:33;;;;;;;19.90;5.03;;;;;;;;;;5092926;28;20093;-84
2023/07/11 08:50:03;;;;;;;6.00;4.40;;;;;;;;;;5091800;28;20055;-83
2023/07/11 08:52:31;;;;;;;5.28;4.80;;;;;;;;;;5091977;28;20056;-84
2023/07/11 08:55:21;;;;;;;8.38;5.20;;;;;;;;;;5092161;28;20499;-86
2023/07/11 08:57:52;;;;;;;5.72;4.47;;;;;;;;;;5092715;28;20126;-83
2023/07/11 09:00:20;;;;;;;9.27;5.43;;;;;;;;;;5091747;28;20087;-85
2023/07/11 09:02:50;;;;;;;5.97;5.40;;;;;;;;;;5092161;28;20176;-85
2023/07/11 09:05:36;;;;;;;8.57;5.68;;;;;;;;;;5091584;28;20097;-82
2023/07/11 09:08:04;;;;;;;6.93;5.43;;;;;;;;;;5095503;28;20166;-83
2023/07/11 09:10:43;;;;;;;6.28;5.68;;;;;;;;;;5096753;28;20485;-84
2023/07/11 09:13:34;;;;;;;7.22;6.10;;;;;;;;;;5095808;28;20508;-85
2023/07/11 09:16:07;;;;;;;6.40;5.80;;;;;;;;;;5096670;28;20400;-85
2023/07/11 09:18:38;;;;;;;8.52;6.10;;;;;;;;;;5095464;28;20052;-84
2023/07/11 09:21:20;;;;;;;9.25;6.72;;;;;;;;;;5095642;28;20079;-85
2023/07/11 09:23:57;;;;;;;7.63;6.90;;;;;;;;;;5095614;28;20093;-83
2023/07/11 09:26:47;;;;;;;7.18;6.22;;;;;;;;;;5096736;28;20381;-85
2023/07/11 09:29:15;;;;;;;9.05;6.22;;;;;;;;;;5095456;28;20059;-84
2023/07/11 09:31:50;;;;;;;6.05;5.15;;;;;;;;;;5095898;28;20454;-86
2023/07/11 09:34:20;;;;;;;5.88;5.40;;;;;;;;;;5096964;28;20052;-85
2023/07/11 09:36:49;;;;;;;5.55;5.00;;;;;;;;;;5095642;28;20051;-84
2023/07/11 09:39:16;;;;;;;5.35;4.85;;;;;;;;;;5095445;28;20051;-89
2023/07/11 09:41:51;;;;;;;6.55;5.13;;;;;;;;;;5096122;28;20415;-86
2023/07/11 09:44:18;;;;;;;6.25;5.25;;;;;;;;;;5095491;28;20052;-84
2023/07/11 09:46:47;;;;;;;5.20;4.70;;;;;;;;;;5095639;28;20048;-86
2023/07/11 09:49:17;;;;;;;6.72;4.82;;;;;;;;;;5096103;28;20044;-84
2023/07/11 09:51:51;;;;;;;6.00;5.20;;;;;;;;;;5094842;28;20048;-84
2023/07/11 09:54:19;;;;;;;6.38;5.25;;;;;;;;;;5095038;28;20066;-86
2023/07/11 09:56:48;;;;;;;6.68;5.20;;;;;;;;;;5094622;28;20048;-86
2023/07/11 09:59:16;;;;;;;5.88;5.25;;;;;;;;;;5094923;28;20079;-84
2023/07/11 10:01:43;;;;;;;6.75;5.57;;;;;;;;;;5095816;28;20468;-84
2023/07/11 10:04:16;;;;;;;8.75;5.68;;;;;;;;;;5095494;28;20082;-83
2023/07/11 10:06:52;;;;;;;7.53;5.93;;;;;;;;;;5094374;28;20443;-84
2023/07/11 10:09:30;;;;;;;8.32;5.20;;;;;;;;;;5094404;28;20090;-84
2023/07/11 10:11:58;;;;;;;6.47;5.03;;;;;;;;;;5094387;28;20047;-91
2023/07/11 10:14:33;;;;;;;5.88;5.20;;;;;;;;;;5095810;28;20496;-84
2023/07/11 10:17:03;;;;;;;6.03;5.30;;;;;;;;;;5095513;28;20052;-85
2023/07/11 10:19:30;;;;;;;5.50;5.10;;;;;;;;;;5093634;28;20481;-84
2023/07/11 10:21:59;;;;;;;7.10;5.50;;;;;;;;;;5094382;28;20153;-83
2023/07/11 10:24:27;;;;;;;9.52;5.55;;;;;;;;;;5094885;28;20105;-86
2023/07/11 10:27:02;;;;;;;6.32;5.72;;;;;;;;;;5094362;28;20088;-83
2023/07/11 10:29:36;;;;;;;7.10;4.85;;;;;;;;;;5094023;28;20083;-83
2023/07/11 10:32:07;;;;;;;7.05;5.45;;;;;;;;;;5094271;28;20090;-84
2023/07/11 10:34:40;;;;;;;9.95;5.90;;;;;;;;;;5094586;28;20052;-82
2023/07/11 10:37:19;;;;;;;13.10;5.90;;;;;;;;;;5094102;28;20487;-81
2023/07/11 10:39:49;;;;;;;8.38;5.30;;;;;;;;;;5094103;28;20094;-84
2023/07/11 10:42:26;;;;;;;7.28;5.88;;;;;;;;;;5093785;28;20098;-85
2023/07/11 10:45:00;;;;;;;8.80;5.53;;;;;;;;;;5094101;28;20454;-84
2023/07/11 10:47:30;;;;;;;8.15;6.10;;;;;;;;;;5094366;28;20052;-85
2023/07/11 10:49:59;;;;;;;23.90;6.55;;;;;;;;;;5095187;28;20055;-84
2023/07/11 10:52:27;;;;;;;7.15;5.50;;;;;;;;;;5093978;28;20087;-87
2023/07/11 10:54:57;;;;;;;6.93;5.95;;;;;;;;;;5095268;28;20058;-84
2023/07/11 10:57:50;;;;;;;5.72;5.13;;;;;;;;;;5095259;28;20087;-86
2023/07/11 11:00:22;;;;;;;6.97;5.85;;;;;;;;;;5095508;28;20059;-85
2023/07/11 11:02:59;;;;;;;7.30;6.40;;;;;;;;;;5093371;28;20251;-89
2023/07/11 11:05:49;;;;;;;7.78;6.30;;;;;;;;;;5094154;28;20111;-85
2023/07/11 11:08:30;;;;;;;5.93;5.30;;;;;;;;;;5093849;28;20040;-85
2023/07/11 11:11:02;;;;;;;20.02;6.25;;;;;;;;;;5094823;28;20055;-83
2023/07/11 11:13:32;;;;;;;9.27;6.20;;;;;;;;;;5094634;28;20083;-84
2023/07/11 11:16:03;;;;;;;6.97;6.20;;;;;;;;;;5094606;28;20512;-84
2023/07/11 11:18:38;;;;;;;10.23;6.47;;;;;;;;;;5094735;28;20044;-84
2023/07/11 11:21:05;;;;;;;7.57;5.47;;;;;;;;;;5093903;28;20051;-85
2023/07/11 11:23:46;;;;;;;10.35;5.97;;;;;;;;;;5094533;28;20530;-87
2023/07/11 11:26:24;;;;;;;6.47;5.18;;;;;;;;;;5093933;28;20080;-86
2023/07/11 11:28:51;;;;;;;8.65;5.60;;;;;;;;;;5094472;28;20571;-83
2023/07/11 11:31:25;;;;;;;6.20;5.50;;;;;;;;;;5092878;28;20094;-83
2023/07/11 11:34:11;;;;;;;7.05;6.05;;;;;;;;;;5093085;28;20048;-82
2023/07/11 11:36:42;;;;;;;7.00;5.72;;;;;;;;;;5093091;28;20186;-84
2023/07/11 11:39:18;;;;;;;11.20;6.63;;;;;;;;;;5094444;28;20492;-84
2023/07/11 11:41:56;;;;;;;17.83;6.70;;;;;;;;;;5092879;28;20051;-84
2023/07/11 11:44:37;;;;;;;11.70;7.25;;;;;;;;;;5092600;28;20488;-83
2023/07/11 11:47:08;;;;;;;9.82;6.40;;;;;;;;;;5093170;28;20083;-84
2023/07/11 11:49:56;;;;;;;10.95;6.47;;;;;;;;;;5093687;28;20529;-84
2023/07/11 11:52:30;;;;;;;8.57;6.20;;;;;;;;;;5092987;28;20048;-84
2023/07/11 11:54:57;;;;;;;6.28;5.68;;;;;;;;;;5092628;28;20393;-82
2023/07/11 11:57:29;;;;;;;6.78;6.03;;;;;;;;;;5092951;28;20048;-85
2023/07/11 11:59:57;;;;;;;6.75;6.15;;;;;;;;;;5092742;28;20048;-85
2023/07/11 12:02:35;;;;;;;8.18;6.20;;;;;;;;;;5093870;28;20070;-82
2023/07/11 12:05:04;;;;;;;7.60;6.43;;;;;;;;;;5093857;28;20048;-83
2023/07/11 12:07:33;;;;;;;7.55;6.85;;;;;;;;;;5093411;28;20093;-83
2023/07/11 12:10:08;;;;;;;8.82;6.88;;;;;;;;;;5092166;28;20137;-83
2023/07/11 12:12:35;;;;;;;7.63;6.45;;;;;;;;;;5092107;28;20052;-82
2023/07/11 12:15:03;;;;;;;8.75;6.57;;;;;;;;;;5092266;28;20044;-82
2023/07/11 12:17:30;;;;;;;7.93;6.80;;;;;;;;;;5093214;28;20074;-83
2023/07/11 12:20:17;;;;;;;9.73;6.47;;;;;;;;;;5093037;28;20075;-82
2023/07/11 12:22:45;;;;;;;7.90;6.50;;;;;;;;;;5085214;28;20048;-82
2023/07/11 12:25:26;;;;;;;8.27;6.20;;;;;;;;;;5092533;28;20048;-89
2023/07/11 12:27:55;;;;;;;6.97;6.05;;;;;;;;;;5091743;28;20055;-82
2023/07/11 12:30:40;;;;;;;11.60;6.40;;;;;;;;;;5091665;28;20081;-83
2023/07/11 12:33:26;;;;;;;8.32;6.43;;;;;;;;;;5092189;28;20093;-82
2023/07/11 12:36:01;;;;;;;7.82;6.63;;;;;;;;;;5091835;28;20530;-84
2023/07/11 12:38:34;;;;;;;8.65;6.43;;;;;;;;;;5092013;28;20090;-84
2023/07/11 12:41:02;;;;;;;;;;;;;;;;;;5092081;28;20075;-85
2023/07/11 12:43:31;;;;;;;8.18;6.68;;;;;;;;;;5092971;28;19966;-88
2023/07/11 12:46:06;;;;;;;9.15;7.65;;;;;;;;;;5093182;28;20055;-86
2023/07/11 12:48:36;;;;;;;12.05;7.55;;;;;;;;;;5092838;28;20051;-86
2023/07/11 12:51:05;;;;;;;7.93;7.13;;;;;;;;;;5091418;28;20444;-86
2023/07/11 12:53:37;;;;;;;10.07;7.85;;;;;;;;;;5091981;28;20492;-84
2023/07/11 12:56:12;;;;;;;9.20;7.53;;;;;;;;;;5093109;28;20048;-87
2023/07/11 12:58:40;;;;;;;9.05;8.10;;;;;;;;;;5093148;28;20500;-85
2023/07/11 13:01:12;;;;;;;8.80;7.68;;;;;;;;;;5092798;28;20048;-85
2023/07/11 13:03:39;;;;;;;11.95;7.75;;;;;;;;;;5091724;28;20130;-84
2023/07/11 13:06:18;;;;;;;9.30;7.57;;;;;;;;;;5092189;28;20437;-82
2023/07/11 13:08:49;;;;;;;9.63;6.97;;;;;;;;;;5092837;28;20052;-83
2023/07/11 13:11:24;;;;;;;7.93;7.10;;;;;;;;;;5091469;28;20545;-83
2023/07/11 13:13:52;;;;;;;8.85;7.00;;;;;;;;;;5091729;28;20074;-82
2023/07/11 13:16:22;;;;;;;8.32;7.18;;;;;;;;;;5092692;28;20059;-86
2023/07/11 13:18:50;;;;;;;8.77;6.88;;;;;;;;;;5092857;28;20123;-84
2023/07/11 13:21:18;;;;;;;7.70;6.90;;;;;;;;;;5091611;28;20059;-83
2023/07/11 13:23:46;;;;;;;9.13;7.00;;;;;;;;;;5091786;28;20123;-83
2023/07/11 13:26:22;;;;;;;8.70;6.72;;;;;;;;;;5091734;28;20125;-84
2023/07/11 13:29:05;;;;;;;6.82;6.10;;;;;;;;;;5090992;28;20492;-86
2023/07/11 13:31:33;;;;;;;6.63;6.10;;;;;;;;;;5091407;28;20567;-82
2023/07/11 13:34:01;;;;;;;7.15;5.90;;;;;;;;;;5092644;28;20090;-84
2023/07/11 13:36:30;;;;;;;7.50;6.15;;;;;;;;;;5091527;28;20070;-82
2023/07/11 13:39:03;;;;;;;8.93;6.43;;;;;;;;;;5092606;28;20052;-84
2023/07/11 13:41:39;;;;;;;6.55;6.00;;;;;;;;;;5092139;28;20079;-83
2023/07/11 13:44:24;;;;;;;7.05;6.32;;;;;;;;;;5092425;28;20048;-83
2023/07/11 13:46:51;;;;;;;7.20;6.03;;;;;;;;;;5091452;28;20084;-83
2023/07/11 13:49:21;;;;;;;8.82;5.50;;;;;;;;;;5091240;28;20052;-83
2023/07/11 13:51:48;;;;;;;7.38;6.00;;;;;;;;;;5092647;28;20496;-83
2023/07/11 13:54:21;;;;;;;6.57;5.97;;;;;;;;;;5092936;28;20093;-84
2023/07/11 13:56:48;;;;;;;6.50;5.85;;;;;;;;;;5095383;28;20055;-83
2023/07/11 13:59:16;;;;;;;7.00;5.82;;;;;;;;;;5094965;28;20048;-83
2023/07/11 14:01:44;;;;;;;8.75;6.13;;;;;;;;;;5094254;28;20054;-88
2023/07/11 14:04:15;;;;;;;6.30;5.80;;;;;;;;;;5094252;28;20052;-83
2023/07/11 14:06:43;;;;;;;6.28;5.43;;;;;;;;;;5094711;28;20040;-84
2023/07/11 14:09:11;;;;;;;8.82;6.00;;;;;;;;;;5094691;28;20044;-84
2023/07/11 14:11:40;;;;;;;6.18;5.57;;;;;;;;;;5094317;28;20044;-82
2023/07/11 14:14:11;;;;;;;6.45;5.85;;;;;;;;;;5095546;28;20078;-84
2023/07/11 14:16:58;;;;;;;7.13;5.55;;;;;;;;;;5094593;28;20389;-83
2023/07/11 14:19:32;;;;;;;7.47;5.47;;;;;;;;;;5095649;28;20477;-83
2023/07/11 14:22:02;;;;;;;10.27;5.97;;;;;;;;;;5094373;28;20059;-82
2023/07/11 14:24:29;;;;;;;8.85;5.50;;;;;;;;;;5094455;28;20048;-83
2023/07/11 14:26:56;;;;;;;7.32;5.93;;;;;;;;;;5093654;28;20044;-83
2023/07/11 14:29:25;;;;;;;6.95;5.90;;;;;;;;;;5094882;28;20048;-82
2023/07/11 14:31:54;;;;;;;5.90;5.40;;;;;;;;;;5093947;28;20109;-83
2023/07/11 14:34:22;;;;;;;6.45;5.50;;;;;;;;;;5094270;28;20448;-84
2023/07/11 14:36:50;;;;;;;5.80;5.22;;;;;;;;;;5093832;28;20083;-81
2023/07/11 14:39:18;;;;;;;6.20;5.35;;;;;;;;;;5094761;28;20083;-84
2023/07/11 14:41:49;;;;;;;7.28;6.28;;;;;;;;;;5093908;28;20109;-86
2023/07/11 14:44:16;;;;;;;6.80;5.85;;;;;;;;;;5094600;28;20083;-85
2023/07/11 14:46:43;;;;;;;7.47;5.68;;;;;;;;;;5094038;28;20047;-85
2023/07/11 14:49:11;;;;;;;8.32;5.65;;;;;;;;;;5093902;28;20055;-84
2023/07/11 14:51:39;;;;;;;7.07;6.18;;;;;;;;;;5093586;28;20051;-82
2023/07/11 14:54:16;;;;;;;6.57;5.90;;;;;;;;;;5093707;28;20450;-86
2023/07/11 14:56:44;;;;;;;6.47;5.65;;;;;;;;;;5093733;28;20463;-84